Time;durP1;ratioP1;P1;durP2;ratioP2;P2;SDS_P1;SDS_P2;PMS_P1;PMS_P2;Temp;Humidity;BMP_temperature;BMP_pressure;BME280_temperature;BME280_humidity;BME280_pressure;Samples;Min_cycle;Max_cycle;Signal;HPM_P1;HPM_P2
2024/04/17 00:01:45;;;;;;;52.92;32.60;;;;;;;;;;5421664;26;19999;-67
2024/04/17 00:04:11;;;;;;;55.17;32.03;;;;;;;;;;5435903;26;19994;-69
2024/04/17 00:06:37;;;;;;;53.38;32.47;;;;;;;;;;5426579;26;20007;-70
2024/04/17 00:09:04;;;;;;;48.55;30.98;;;;;;;;;;5424818;26;20090;-68
2024/04/17 00:11:30;;;;;;;51.75;30.98;;;;;;;;;;5429988;26;20005;-70
2024/04/17 00:13:56;;;;;;;49.55;30.58;;;;;;;;;;5427616;26;20007;-69
2024/04/17 00:16:22;;;;;;;51.70;31.50;;;;;;;;;;5432238;26;19991;-70
2024/04/17 00:18:48;;;;;;;46.08;29.38;;;;;;;;;;5434426;26;19995;-68
2024/04/17 00:21:14;;;;;;;47.28;29.00;;;;;;;;;;5438371;26;20378;-69
2024/04/17 00:23:40;;;;;;;48.63;29.48;;;;;;;;;;5433350;26;19992;-69
2024/04/17 00:26:06;;;;;;;47.25;29.17;;;;;;;;;;5431459;26;20049;-67
2024/04/17 00:28:32;;;;;;;51.08;28.75;;;;;;;;;;5427199;26;20000;-67
2024/04/17 00:30:58;;;;;;;46.90;27.75;;;;;;;;;;5421396;26;20008;-67
2024/04/17 00:33:25;;;;;;;44.33;27.63;;;;;;;;;;5421194;26;19996;-67
2024/04/17 00:35:51;;;;;;;45.38;27.35;;;;;;;;;;5421502;26;20006;-68
2024/04/17 00:38:17;;;;;;;44.83;28.00;;;;;;;;;;5436018;26;19999;-69
2024/04/17 00:40:43;;;;;;;45.08;26.20;;;;;;;;;;5419587;26;20339;-69
2024/04/17 00:43:09;;;;;;;45.55;27.42;;;;;;;;;;5421257;26;20003;-67
2024/04/17 00:45:45;;;;;;;42.50;26.42;;;;;;;;;;5421237;26;20356;-69
2024/04/17 00:48:12;;;;;;;44.78;28.45;;;;;;;;;;5421390;26;19999;-68
2024/04/17 00:50:40;;;;;;;42.45;26.27;;;;;;;;;;5417049;26;20023;-67
2024/04/17 00:53:07;;;;;;;42.53;26.45;;;;;;;;;;5416596;26;20342;-68
2024/04/17 00:55:35;;;;;;;40.67;24.98;;;;;;;;;;5416955;26;20014;-69
2024/04/17 00:58:02;;;;;;;39.40;24.88;;;;;;;;;;5416880;26;20011;-68
2024/04/17 01:00:28;;;;;;;38.72;24.33;;;;;;;;;;5416990;26;20046;-68
2024/04/17 01:02:54;;;;;;;39.28;25.10;;;;;;;;;;5416589;26;20000;-68
2024/04/17 01:05:20;;;;;;;36.22;24.05;;;;;;;;;;5414938;26;20018;-69
2024/04/17 01:07:46;;;;;;;40.85;23.73;;;;;;;;;;5417084;26;20003;-68
2024/04/17 01:10:14;;;;;;;40.38;24.75;;;;;;;;;;5416835;26;20006;-68
2024/04/17 01:12:40;;;;;;;37.10;23.05;;;;;;;;;;5418880;26;19995;-68
2024/04/17 01:15:10;;;;;;;35.38;22.38;;;;;;;;;;5416646;26;20013;-68
2024/04/17 01:17:36;;;;;;;36.97;22.08;;;;;;;;;;5416774;26;20466;-67
2024/04/17 01:20:03;;;;;;;35.53;22.13;;;;;;;;;;5416698;26;20032;-65
2024/04/17 01:22:29;;;;;;;37.80;22.55;;;;;;;;;;5372436;21;20017;-71
2024/04/17 01:24:55;;;;;;;34.92;21.27;;;;;;;;;;5277097;27;19998;-70
2024/04/17 01:27:21;;;;;;;36.15;20.98;;;;;;;;;;5277221;27;20446;-70
2024/04/17 01:29:47;;;;;;;32.38;20.50;;;;;;;;;;5277298;27;20434;-71
2024/04/17 01:32:13;;;;;;;34.40;21.25;;;;;;;;;;5276861;27;20006;-68
2024/04/17 01:34:39;;;;;;;35.25;20.17;;;;;;;;;;5277248;27;20014;-68
2024/04/17 01:37:05;;;;;;;35.95;20.58;;;;;;;;;;5277516;27;20006;-69
2024/04/17 01:39:34;;;;;;;31.98;20.75;;;;;;;;;;5272030;27;20091;-69
2024/04/17 01:42:00;;;;;;;42.15;19.55;;;;;;;;;;5276968;27;20018;-72
2024/04/17 01:44:26;;;;;;;32.65;19.70;;;;;;;;;;5277247;27;20030;-72
2024/04/17 01:46:52;;;;;;;39.35;21.58;;;;;;;;;;5304070;26;20010;-72
2024/04/17 01:49:18;;;;;;;34.85;19.08;;;;;;;;;;5277315;27;20377;-72
2024/04/17 01:51:44;;;;;;;33.45;19.60;;;;;;;;;;5277089;27;20025;-72
2024/04/17 01:54:10;;;;;;;33.08;19.40;;;;;;;;;;5277022;27;20003;-70
2024/04/17 01:56:36;;;;;;;30.23;18.20;;;;;;;;;;5272985;27;20022;-70
2024/04/17 01:59:02;;;;;;;29.00;17.80;;;;;;;;;;5303341;27;20021;-69
2024/04/17 02:01:28;;;;;;;32.40;18.13;;;;;;;;;;5275391;27;20002;-72
2024/04/17 02:03:54;;;;;;;30.23;17.77;;;;;;;;;;5274849;27;20025;-73
2024/04/17 02:06:20;;;;;;;35.20;18.52;;;;;;;;;;5275072;27;20073;-73
2024/04/17 02:08:46;;;;;;;32.92;17.77;;;;;;;;;;5275178;27;20002;-74
2024/04/17 02:11:12;;;;;;;29.08;17.38;;;;;;;;;;5301462;26;20010;-74
2024/04/17 02:13:38;;;;;;;28.67;16.45;;;;;;;;;;5274316;27;20002;-75
2024/04/17 02:16:04;;;;;;;26.35;16.45;;;;;;;;;;5274839;27;20002;-75
2024/04/17 02:18:30;;;;;;;26.70;15.63;;;;;;;;;;5275056;27;20075;-74
2024/04/17 02:20:56;;;;;;;32.17;16.95;;;;;;;;;;5275000;27;20010;-74
2024/04/17 02:23:27;;;;;;;24.33;15.55;;;;;;;;;;5274868;27;20429;-74
2024/04/17 02:25:53;;;;;;;25.52;16.33;;;;;;;;;;5275187;27;20396;-76
2024/04/17 02:28:19;;;;;;;25.77;15.65;;;;;;;;;;5275037;27;20002;-74
2024/04/17 02:30:45;;;;;;;27.88;15.55;;;;;;;;;;5272078;27;20013;-74
2024/04/17 02:33:11;;;;;;;24.98;15.43;;;;;;;;;;5273731;27;20109;-73
2024/04/17 02:35:37;;;;;;;26.27;15.07;;;;;;;;;;5273936;27;20007;-70
2024/04/17 02:38:03;;;;;;;21.60;13.63;;;;;;;;;;5274041;27;20002;-71
2024/04/17 02:40:29;;;;;;;22.55;14.70;;;;;;;;;;5274043;27;20017;-70
2024/04/17 02:42:54;;;;;;;24.00;14.27;;;;;;;;;;5273238;27;20077;-70
2024/04/17 02:45:20;;;;;;;21.45;14.50;;;;;;;;;;5273792;27;20002;-71
2024/04/17 02:47:46;;;;;;;22.02;14.25;;;;;;;;;;5275093;27;20006;-71
2024/04/17 02:50:12;;;;;;;22.50;12.93;;;;;;;;;;5300974;26;20002;-71
2024/04/17 02:52:38;;;;;;;21.80;13.27;;;;;;;;;;5273724;27;20003;-74
2024/04/17 02:55:04;;;;;;;21.52;13.10;;;;;;;;;;5300610;27;20002;-73
2024/04/17 02:57:31;;;;;;;19.65;12.63;;;;;;;;;;5274197;27;20014;-72
2024/04/17 02:59:57;;;;;;;20.98;12.45;;;;;;;;;;5274014;27;20003;-73
2024/04/17 03:02:23;;;;;;;20.23;12.82;;;;;;;;;;5273403;27;20370;-72
2024/04/17 03:04:49;;;;;;;18.40;12.77;;;;;;;;;;5273551;27;20049;-71
2024/04/17 03:07:15;;;;;;;19.75;12.68;;;;;;;;;;5299931;26;20017;-72
2024/04/17 03:09:41;;;;;;;20.17;12.98;;;;;;;;;;5273413;27;20017;-70
2024/04/17 03:12:07;;;;;;;19.02;12.50;;;;;;;;;;5272255;27;19999;-70
2024/04/17 03:14:33;;;;;;;19.25;12.07;;;;;;;;;;5272651;27;20046;-70
2024/04/17 03:16:59;;;;;;;19.25;11.93;;;;;;;;;;5300011;27;20082;-72
2024/04/17 03:19:25;;;;;;;20.42;12.25;;;;;;;;;;5300251;27;20003;-72
2024/04/17 03:21:51;;;;;;;18.38;11.57;;;;;;;;;;5272920;27;20022;-72
2024/04/17 03:24:17;;;;;;;19.13;11.27;;;;;;;;;;5273021;27;20002;-72
2024/04/17 03:26:43;;;;;;;18.42;11.60;;;;;;;;;;5273058;27;20021;-71
2024/04/17 03:29:09;;;;;;;16.95;10.63;;;;;;;;;;5273198;27;20034;-71
2024/04/17 03:31:35;;;;;;;16.67;10.85;;;;;;;;;;5270275;27;20038;-71
2024/04/17 03:34:01;;;;;;;16.95;10.98;;;;;;;;;;5273056;27;20327;-73
2024/04/17 03:36:27;;;;;;;17.50;10.18;;;;;;;;;;5273101;27;20002;-72
2024/04/17 03:38:52;;;;;;;18.02;11.57;;;;;;;;;;5299565;26;20359;-72
2024/04/17 03:41:18;;;;;;;17.88;11.00;;;;;;;;;;5299284;27;20002;-70
2024/04/17 03:43:44;;;;;;;15.75;10.70;;;;;;;;;;5272979;27;20671;-71
2024/04/17 03:46:10;;;;;;;15.77;10.55;;;;;;;;;;5272687;27;20002;-73
2024/04/17 03:48:36;;;;;;;18.17;10.95;;;;;;;;;;5273211;27;20193;-73
2024/04/17 03:51:02;;;;;;;13.85;9.25;;;;;;;;;;5272955;27;20085;-74
2024/04/17 03:53:28;;;;;;;15.80;10.02;;;;;;;;;;5272847;27;20014;-74
2024/04/17 03:55:54;;;;;;;16.25;9.55;;;;;;;;;;5273161;27;20387;-73
2024/04/17 03:58:20;;;;;;;13.57;8.63;;;;;;;;;;5272992;27;20017;-71
2024/04/17 04:00:47;;;;;;;14.90;9.50;;;;;;;;;;5273184;27;20416;-74
2024/04/17 04:03:13;;;;;;;14.13;8.90;;;;;;;;;;5272873;27;20111;-74
2024/04/17 04:05:45;;;;;;;16.83;8.95;;;;;;;;;;5272702;27;20441;-74
2024/04/17 04:08:11;;;;;;;13.70;8.70;;;;;;;;;;5272837;27;20006;-74
2024/04/17 04:10:38;;;;;;;14.20;8.90;;;;;;;;;;5272470;27;20017;-77
2024/04/17 04:13:04;;;;;;;15.20;8.77;;;;;;;;;;5272170;27;20007;-73
2024/04/17 04:15:30;;;;;;;13.98;8.85;;;;;;;;;;5272594;27;20076;-73
2024/04/17 04:17:56;;;;;;;15.63;8.77;;;;;;;;;;5299354;26;20026;-74
2024/04/17 04:20:21;;;;;;;19.42;8.57;;;;;;;;;;5272614;27;20006;-72
2024/04/17 04:22:47;;;;;;;13.45;7.75;;;;;;;;;;5272424;27;20003;-73
2024/04/17 04:25:13;;;;;;;13.57;8.27;;;;;;;;;;5273853;27;20014;-71
2024/04/17 04:27:41;;;;;;;14.98;8.15;;;;;;;;;;5276165;27;20003;-71
2024/04/17 04:30:08;;;;;;;15.40;8.20;;;;;;;;;;5273827;27;20003;-72
2024/04/17 04:32:34;;;;;;;12.27;7.65;;;;;;;;;;5276033;27;20006;-70
2024/04/17 04:34:59;;;;;;;14.35;8.10;;;;;;;;;;5277763;27;20006;-73
2024/04/17 04:37:25;;;;;;;14.75;8.30;;;;;;;;;;5283251;27;20017;-74
2024/04/17 04:39:52;;;;;;;16.80;8.23;;;;;;;;;;5285754;27;20015;-70
2024/04/17 04:42:18;;;;;;;15.70;7.88;;;;;;;;;;5309993;26;20006;-72
2024/04/17 04:44:45;;;;;;;15.70;7.88;;;;;;;;;;5293739;27;20355;-70
2024/04/17 04:47:13;;;;;;;17.40;8.23;;;;;;;;;;5285866;27;20006;-70
2024/04/17 04:49:39;;;;;;;13.13;8.07;;;;;;;;;;5286767;27;20038;-70
2024/04/17 04:52:05;;;;;;;23.40;8.57;;;;;;;;;;5286592;27;20009;-70
2024/04/17 04:54:31;;;;;;;17.67;8.02;;;;;;;;;;5279145;27;20498;-69
2024/04/17 04:56:57;;;;;;;14.95;7.10;;;;;;;;;;5277880;27;20199;-69
2024/04/17 04:59:23;;;;;;;18.55;8.05;;;;;;;;;;5276635;27;20002;-69
2024/04/17 05:01:49;;;;;;;13.40;7.53;;;;;;;;;;5276073;27;20097;-65
2024/04/17 05:04:15;;;;;;;25.75;7.93;;;;;;;;;;5267490;27;20077;-66
2024/04/17 05:06:41;;;;;;;13.15;7.40;;;;;;;;;;5276728;27;20014;-66
2024/04/17 05:09:07;;;;;;;20.88;7.38;;;;;;;;;;5273260;27;20017;-66
2024/04/17 05:11:33;;;;;;;21.25;6.90;;;;;;;;;;5265618;27;20002;-66
2024/04/17 05:13:59;;;;;;;22.52;7.38;;;;;;;;;;5275673;27;20002;-66
2024/04/17 05:16:25;;;;;;;12.63;7.03;;;;;;;;;;5275731;27;20081;-65
2024/04/17 05:18:51;;;;;;;21.00;7.78;;;;;;;;;;5274619;27;20006;-65
2024/04/17 05:21:17;;;;;;;22.67;7.90;;;;;;;;;;5274560;27;20439;-69
2024/04/17 05:23:43;;;;;;;27.50;8.52;;;;;;;;;;5274656;27;20003;-65
2024/04/17 05:26:09;;;;;;;27.77;8.35;;;;;;;;;;5274614;27;19998;-66
2024/04/17 05:28:35;;;;;;;28.10;7.10;;;;;;;;;;5274596;27;20016;-66
2024/04/17 05:31:01;;;;;;;27.23;7.45;;;;;;;;;;5271505;27;20508;-66
2024/04/17 05:33:27;;;;;;;24.50;7.22;;;;;;;;;;5274153;27;20195;-66
2024/04/17 05:35:53;;;;;;;25.38;7.07;;;;;;;;;;5274310;27;20062;-65
2024/04/17 05:38:19;;;;;;;15.63;6.85;;;;;;;;;;5274491;27;20074;-66
2024/04/17 05:40:46;;;;;;;20.67;6.60;;;;;;;;;;5274420;27;20630;-66
2024/04/17 05:43:12;;;;;;;17.63;6.43;;;;;;;;;;5274179;27;20072;-66
2024/04/17 05:45:38;;;;;;;14.13;6.82;;;;;;;;;;5274636;27;20094;-66
2024/04/17 05:48:04;;;;;;;13.35;5.95;;;;;;;;;;5274196;27;20017;-66
2024/04/17 05:50:30;;;;;;;15.10;6.30;;;;;;;;;;5274606;27;20538;-65
2024/04/17 05:52:56;;;;;;;14.35;5.97;;;;;;;;;;5273916;27;20006;-66
2024/04/17 05:55:22;;;;;;;17.25;6.25;;;;;;;;;;5274249;27;20081;-67
2024/04/17 05:57:48;;;;;;;14.55;5.97;;;;;;;;;;5274062;27;20018;-65
2024/04/17 06:00:14;;;;;;;11.02;6.13;;;;;;;;;;5272543;27;20304;-66
2024/04/17 06:02:40;;;;;;;15.77;6.13;;;;;;;;;;5271089;27;20076;-66
2024/04/17 06:05:06;;;;;;;12.63;5.85;;;;;;;;;;5247901;27;20073;-65
2024/04/17 06:07:32;;;;;;;12.93;4.93;;;;;;;;;;5269268;27;20411;-65
2024/04/17 06:09:58;;;;;;;10.77;4.07;;;;;;;;;;5269911;27;20010;-66
2024/04/17 06:12:24;;;;;;;8.32;3.47;;;;;;;;;;5235188;27;20422;-66
2024/04/17 06:14:50;;;;;;;9.55;3.15;;;;;;;;;;5267067;27;20005;-66
2024/04/17 06:17:16;;;;;;;6.00;2.30;;;;;;;;;;5274083;27;20066;-66
2024/04/17 06:19:42;;;;;;;8.57;4.45;;;;;;;;;;5273577;27;20081;-67
2024/04/17 06:22:09;;;;;;;38.78;22.42;;;;;;;;;;5259313;27;20013;-67
2024/04/17 06:24:35;;;;;;;15.13;7.93;;;;;;;;;;5273644;27;20014;-67
2024/04/17 06:27:01;;;;;;;39.65;23.08;;;;;;;;;;5259840;27;19999;-67
2024/04/17 06:29:27;;;;;;;57.53;33.33;;;;;;;;;;5274031;27;20002;-65
2024/04/17 06:31:53;;;;;;;25.15;15.15;;;;;;;;;;5273297;27;20544;-66
2024/04/17 06:34:19;;;;;;;36.58;21.25;;;;;;;;;;5274289;27;20012;-67
2024/04/17 06:36:45;;;;;;;15.38;7.95;;;;;;;;;;5273703;27;19998;-66
2024/04/17 06:39:11;;;;;;;16.15;7.50;;;;;;;;;;5269035;27;20080;-67
2024/04/17 06:41:37;;;;;;;10.07;6.32;;;;;;;;;;5274026;27;20552;-66
2024/04/17 06:44:03;;;;;;;13.55;7.82;;;;;;;;;;5260390;27;20010;-65
2024/04/17 06:46:29;;;;;;;13.32;8.15;;;;;;;;;;5274278;27;20446;-65
2024/04/17 06:48:55;;;;;;;18.77;10.38;;;;;;;;;;5272393;27;20009;-65
2024/04/17 06:51:21;;;;;;;16.15;9.77;;;;;;;;;;5271842;27;19995;-66
2024/04/17 06:53:47;;;;;;;16.35;10.27;;;;;;;;;;5273532;27;20015;-65
2024/04/17 06:56:13;;;;;;;16.20;10.25;;;;;;;;;;5274215;27;20040;-66
2024/04/17 06:58:39;;;;;;;16.98;9.57;;;;;;;;;;5273987;27;20088;-66
2024/04/17 07:01:05;;;;;;;17.90;10.32;;;;;;;;;;5273181;27;20026;-66
2024/04/17 07:03:31;;;;;;;13.98;8.43;;;;;;;;;;5273242;27;20009;-66
2024/04/17 07:06:01;;;;;;;14.90;8.68;;;;;;;;;;5259341;27;20002;-65
2024/04/17 07:08:28;;;;;;;14.63;7.90;;;;;;;;;;5259122;27;20400;-65
2024/04/17 07:10:54;;;;;;;12.07;7.22;;;;;;;;;;5273899;27;20077;-65
2024/04/17 07:13:20;;;;;;;10.98;6.50;;;;;;;;;;5270127;27;20010;-66
2024/04/17 07:15:46;;;;;;;10.45;6.75;;;;;;;;;;5274016;27;20669;-65
2024/04/17 07:18:12;;;;;;;9.95;6.07;;;;;;;;;;5273201;27;20010;-65
2024/04/17 07:20:39;;;;;;;9.30;6.20;;;;;;;;;;5273083;27;20010;-65
2024/04/17 07:23:05;;;;;;;8.70;5.60;;;;;;;;;;5272562;27;20034;-65
2024/04/17 07:25:31;;;;;;;6.93;4.65;;;;;;;;;;5313042;21;20009;-61
2024/04/17 07:27:57;;;;;;;8.05;4.72;;;;;;;;;;5344819;26;20078;-60
2024/04/17 07:30:23;;;;;;;7.65;5.13;;;;;;;;;;5369790;26;19996;-60
2024/04/17 07:32:49;;;;;;;8.05;4.68;;;;;;;;;;5378674;26;20430;-61
2024/04/17 07:35:15;;;;;;;6.95;4.40;;;;;;;;;;5367885;26;20401;-60
2024/04/17 07:37:41;;;;;;;7.43;4.50;;;;;;;;;;5344019;26;20001;-60
2024/04/17 07:40:07;;;;;;;7.35;4.45;;;;;;;;;;5343709;26;20432;-60
2024/04/17 07:42:33;;;;;;;6.05;3.85;;;;;;;;;;5331721;26;20006;-60
2024/04/17 07:44:59;;;;;;;8.35;4.03;;;;;;;;;;5339057;26;20025;-59
2024/04/17 07:47:25;;;;;;;6.80;3.90;;;;;;;;;;5343506;26;20475;-60
2024/04/17 07:49:51;;;;;;;6.30;3.97;;;;;;;;;;5343833;26;20031;-60
2024/04/17 07:52:17;;;;;;;6.72;3.70;;;;;;;;;;5343494;26;20445;-60
2024/04/17 07:54:43;;;;;;;5.85;3.53;;;;;;;;;;5343950;26;20009;-61
2024/04/17 07:57:09;;;;;;;7.00;3.38;;;;;;;;;;5343655;26;20016;-61
2024/04/17 07:59:35;;;;;;;4.53;2.88;;;;;;;;;;5339011;26;20002;-61
2024/04/17 08:02:01;;;;;;;5.72;3.45;;;;;;;;;;5342226;26;20001;-61
2024/04/17 08:04:27;;;;;;;5.15;3.40;;;;;;;;;;5347056;26;20012;-60
2024/04/17 08:06:53;;;;;;;4.32;3.08;;;;;;;;;;5346898;26;20649;-60
2024/04/17 08:09:19;;;;;;;6.05;4.43;;;;;;;;;;5347318;26;20005;-60
2024/04/17 08:11:45;;;;;;;9.25;6.40;;;;;;;;;;5347216;26;20016;-60
2024/04/17 08:14:11;;;;;;;14.20;10.40;;;;;;;;;;5347278;26;20008;-61
2024/04/17 08:16:37;;;;;;;23.05;17.23;;;;;;;;;;5347260;26;20012;-60
2024/04/17 08:19:03;;;;;;;31.10;22.17;;;;;;;;;;5346872;26;20013;-60
2024/04/17 08:21:31;;;;;;;34.45;23.73;;;;;;;;;;5346499;26;20360;-58
2024/04/17 08:23:57;;;;;;;38.58;27.85;;;;;;;;;;5346573;26;20016;-60
2024/04/17 08:26:23;;;;;;;31.75;22.10;;;;;;;;;;5346740;26;20001;-61
2024/04/17 08:28:48;;;;;;;26.38;18.83;;;;;;;;;;5346777;26;20004;-61
2024/04/17 08:31:14;;;;;;;26.77;18.95;;;;;;;;;;5346752;26;20015;-59
2024/04/17 08:33:40;;;;;;;25.95;19.13;;;;;;;;;;5332327;26;20009;-60
2024/04/17 08:36:06;;;;;;;32.25;22.38;;;;;;;;;;5346670;26;20004;-60
2024/04/17 08:38:32;;;;;;;32.28;23.27;;;;;;;;;;5346867;26;20358;-60
2024/04/17 08:40:58;;;;;;;30.50;21.73;;;;;;;;;;5346877;26;20020;-60
2024/04/17 08:43:26;;;;;;;33.80;23.25;;;;;;;;;;5346263;26;20009;-61
2024/04/17 08:45:54;;;;;;;32.97;23.05;;;;;;;;;;5346960;26;20016;-60
2024/04/17 08:48:20;;;;;;;34.10;24.42;;;;;;;;;;5346452;26;20001;-61
2024/04/17 08:50:46;;;;;;;35.00;24.10;;;;;;;;;;5346758;26;20016;-60
2024/04/17 08:53:14;;;;;;;45.00;31.48;;;;;;;;;;5346305;26;20005;-60
2024/04/17 08:55:41;;;;;;;60.42;42.78;;;;;;;;;;5346267;26;20044;-61
2024/04/17 08:58:07;;;;;;;61.33;44.53;;;;;;;;;;5322674;26;20543;-60
2024/04/17 09:00:36;;;;;;;72.20;51.53;;;;;;;;;;5312210;26;20105;-60
2024/04/17 09:03:06;;;;;;;72.55;51.00;;;;;;;;;;5311187;26;20002;-61
2024/04/17 09:05:33;;;;;;;70.90;49.20;;;;;;;;;;5312209;26;20037;-60
2024/04/17 09:07:59;;;;;;;55.92;40.15;;;;;;;;;;5312099;26;20008;-60
2024/04/17 09:10:25;;;;;;;64.53;46.30;;;;;;;;;;5310862;26;20013;-61
2024/04/17 09:12:51;;;;;;;58.15;42.15;;;;;;;;;;5311284;26;20005;-60
2024/04/17 09:15:18;;;;;;;51.65;36.35;;;;;;;;;;5311895;26;20005;-60
2024/04/17 09:17:44;;;;;;;45.22;32.70;;;;;;;;;;5311783;26;20474;-61
2024/04/17 09:20:10;;;;;;;47.35;33.22;;;;;;;;;;5311628;26;20052;-60
2024/04/17 09:22:36;;;;;;;51.00;36.58;;;;;;;;;;5311724;26;20001;-60
2024/04/17 09:25:03;;;;;;;69.50;49.63;;;;;;;;;;5311927;26;20006;-59
2024/04/17 09:27:29;;;;;;;69.55;51.15;;;;;;;;;;5311877;26;20461;-59
2024/04/17 09:29:55;;;;;;;67.53;48.75;;;;;;;;;;5312168;26;20004;-60
2024/04/17 09:32:22;;;;;;;56.97;40.63;;;;;;;;;;5311431;26;20013;-61
2024/04/17 09:34:48;;;;;;;54.13;38.05;;;;;;;;;;5311518;26;20016;-60
2024/04/17 09:37:14;;;;;;;62.72;45.75;;;;;;;;;;5311490;26;20001;-60
2024/04/17 09:39:40;;;;;;;66.25;48.13;;;;;;;;;;5311722;26;20016;-60
2024/04/17 09:42:12;;;;;;;60.90;44.70;;;;;;;;;;5311778;26;20006;-59
2024/04/17 09:44:38;;;;;;;63.05;45.67;;;;;;;;;;5311789;26;20005;-60
2024/04/17 09:47:11;;;;;;;64.10;46.28;;;;;;;;;;5311198;26;20028;-60
2024/04/17 09:49:49;;;;;;;57.50;42.80;;;;;;;;;;5311835;26;20105;-60
2024/04/17 09:52:18;;;;;;;52.75;36.58;;;;;;;;;;5311865;26;20046;-60
2024/04/17 09:54:45;;;;;;;48.65;35.70;;;;;;;;;;5311228;26;20012;-60
2024/04/17 09:57:11;;;;;;;45.55;33.97;;;;;;;;;;5310920;26;20002;-60
2024/04/17 09:59:37;;;;;;;46.10;34.22;;;;;;;;;;5311415;26;20013;-60
2024/04/17 10:02:03;;;;;;;47.88;34.50;;;;;;;;;;5311215;26;20001;-60
2024/04/17 10:04:30;;;;;;;47.92;35.58;;;;;;;;;;5310999;26;20071;-60
2024/04/17 10:06:57;;;;;;;48.42;33.95;;;;;;;;;;5311034;26;20725;-60
2024/04/17 10:09:23;;;;;;;47.15;34.10;;;;;;;;;;5311154;26;20024;-60
2024/04/17 10:11:52;;;;;;;45.85;32.40;;;;;;;;;;5311026;26;20005;-60
2024/04/17 10:14:18;;;;;;;50.55;32.28;;;;;;;;;;5311011;26;20072;-59
2024/04/17 10:16:44;;;;;;;45.88;33.08;;;;;;;;;;5310716;26;20379;-60
2024/04/17 10:19:12;;;;;;;47.65;33.65;;;;;;;;;;5310977;26;20001;-61
2024/04/17 10:21:38;;;;;;;43.35;31.80;;;;;;;;;;5310600;26;20019;-60
2024/04/17 10:24:08;;;;;;;46.13;33.88;;;;;;;;;;5311027;26;20045;-60
2024/04/17 10:26:36;;;;;;;46.50;33.67;;;;;;;;;;5310666;26;20013;-61
2024/04/17 10:29:02;;;;;;;45.10;32.47;;;;;;;;;;5310975;26;20013;-60
2024/04/17 10:31:35;;;;;;;46.67;34.42;;;;;;;;;;5310564;26;20357;-60
2024/04/17 10:34:01;;;;;;;49.30;36.47;;;;;;;;;;5310672;26;20005;-60
2024/04/17 10:36:27;;;;;;;48.90;37.00;;;;;;;;;;5310622;26;20042;-60
2024/04/17 10:38:55;;;;;;;47.72;36.15;;;;;;;;;;5310726;26;20017;-60
2024/04/17 10:41:22;;;;;;;47.63;36.38;;;;;;;;;;5311015;26;20014;-60
2024/04/17 10:43:48;;;;;;;51.75;36.25;;;;;;;;;;5310621;26;20005;-59
2024/04/17 10:46:21;;;;;;;49.55;36.10;;;;;;;;;;5310322;26;20009;-60
2024/04/17 10:48:48;;;;;;;46.55;34.65;;;;;;;;;;5310908;26;20020;-60
2024/04/17 10:51:14;;;;;;;46.00;33.88;;;;;;;;;;5310497;26;20045;-60
2024/04/17 10:53:45;;;;;;;45.67;33.13;;;;;;;;;;5310212;26;20037;-60
2024/04/17 10:56:11;;;;;;;47.17;34.88;;;;;;;;;;5310475;26;20012;-60
2024/04/17 10:58:39;;;;;;;46.35;33.33;;;;;;;;;;5310456;26;19997;-60
2024/04/17 11:01:05;;;;;;;43.97;33.28;;;;;;;;;;5310271;26;20361;-60
2024/04/17 11:03:31;;;;;;;45.30;32.70;;;;;;;;;;5310235;26;20005;-60
2024/04/17 11:05:58;;;;;;;44.85;32.15;;;;;;;;;;5310294;26;20416;-61
2024/04/17 11:08:24;;;;;;;45.92;32.22;;;;;;;;;;5310821;26;20017;-60
2024/04/17 11:10:50;;;;;;;41.78;30.58;;;;;;;;;;5310293;26;20037;-61
2024/04/17 11:13:17;;;;;;;44.30;31.73;;;;;;;;;;5310107;26;20009;-59
2024/04/17 11:15:43;;;;;;;39.15;29.35;;;;;;;;;;5310204;26;20024;-61
2024/04/17 11:18:09;;;;;;;41.60;30.10;;;;;;;;;;5310549;26;20002;-61
2024/04/17 11:20:35;;;;;;;42.30;30.48;;;;;;;;;;5310342;26;20470;-60
2024/04/17 11:23:08;;;;;;;41.75;29.80;;;;;;;;;;5310064;26;20013;-60
2024/04/17 11:25:37;;;;;;;39.30;28.33;;;;;;;;;;5310134;26;20852;-61
2024/04/17 11:28:03;;;;;;;38.70;28.25;;;;;;;;;;5310037;26;20006;-60
2024/04/17 11:30:29;;;;;;;41.63;29.15;;;;;;;;;;5309894;26;20338;-60
2024/04/17 11:32:56;;;;;;;39.55;28.73;;;;;;;;;;5310182;26;20015;-60
2024/04/17 11:35:22;;;;;;;36.78;27.48;;;;;;;;;;5309551;26;20488;-61
2024/04/17 11:37:51;;;;;;;37.38;28.20;;;;;;;;;;5310491;26;20005;-60
2024/04/17 11:40:18;;;;;;;40.38;28.50;;;;;;;;;;5310217;26;20016;-61
2024/04/17 11:42:44;;;;;;;35.95;27.30;;;;;;;;;;5309890;26;20083;-60
2024/04/17 11:45:14;;;;;;;35.47;26.73;;;;;;;;;;5310013;26;20002;-60
2024/04/17 11:47:40;;;;;;;35.30;26.35;;;;;;;;;;5310215;26;20005;-60
2024/04/17 11:50:10;;;;;;;35.47;25.63;;;;;;;;;;5310279;26;20400;-60
2024/04/17 11:52:36;;;;;;;37.22;26.65;;;;;;;;;;5309538;26;20398;-60
2024/04/17 11:55:03;;;;;;;33.60;26.02;;;;;;;;;;5309820;26;20029;-61
2024/04/17 11:57:29;;;;;;;34.45;24.88;;;;;;;;;;5310027;26;20014;-60
2024/04/17 11:59:55;;;;;;;34.88;25.25;;;;;;;;;;5309777;26;20008;-61
2024/04/17 12:02:21;;;;;;;33.83;24.40;;;;;;;;;;5309461;26;20076;-60
2024/04/17 12:04:48;;;;;;;31.90;24.17;;;;;;;;;;5309256;26;20473;-60
2024/04/17 12:07:14;;;;;;;34.25;24.48;;;;;;;;;;5307990;26;20019;-61
2024/04/17 12:09:42;;;;;;;31.33;23.80;;;;;;;;;;5309989;26;20075;-60
2024/04/17 12:12:08;;;;;;;33.17;24.70;;;;;;;;;;5309441;26;20037;-59
2024/04/17 12:14:34;;;;;;;30.42;23.10;;;;;;;;;;5309608;26;20456;-59
2024/04/17 12:17:00;;;;;;;30.90;22.92;;;;;;;;;;5309622;26;20009;-60
2024/04/17 12:19:26;;;;;;;28.73;21.40;;;;;;;;;;5309423;26;19997;-60
2024/04/17 12:21:52;;;;;;;29.60;22.35;;;;;;;;;;5309238;26;20002;-60
2024/04/17 12:26:49;;;;;;;29.02;21.30;;;;;;;;;;5311484;26;20408;-59
2024/04/17 12:27:07;;;;;;;29.67;22.10;;;;;;;;;;5274630;26;20355;-61
2024/04/17 12:29:33;;;;;;;26.88;20.52;;;;;;;;;;5275446;27;20450;-61
2024/04/17 12:31:59;;;;;;;29.85;21.80;;;;;;;;;;5274785;27;20010;-58
2024/04/17 12:34:25;;;;;;;29.00;21.77;;;;;;;;;;5274607;27;20006;-59
2024/04/17 12:36:51;;;;;;;27.13;20.92;;;;;;;;;;5274906;27;20012;-61
2024/04/17 12:39:17;;;;;;;25.67;19.88;;;;;;;;;;5285011;27;20446;-61
2024/04/17 12:41:43;;;;;;;26.92;19.67;;;;;;;;;;5308949;26;20080;-60
2024/04/17 12:44:09;;;;;;;14.43;8.98;;;;;;;;;;5308760;26;20496;-62
2024/04/17 12:46:35;;;;;;;15.70;10.25;;;;;;;;;;5310381;26;20001;-61
2024/04/17 12:49:01;;;;;;;16.60;11.35;;;;;;;;;;5312415;26;20002;-61
2024/04/17 12:51:27;;;;;;;20.55;14.57;;;;;;;;;;5312409;26;20042;-60
2024/04/17 12:53:53;;;;;;;19.13;12.57;;;;;;;;;;5311880;26;20024;-62
2024/04/17 12:56:19;;;;;;;20.35;14.38;;;;;;;;;;5312050;26;20006;-61
2024/04/17 12:58:45;;;;;;;16.63;10.05;;;;;;;;;;5312576;26;20012;-63
2024/04/17 13:01:11;;;;;;;26.45;18.48;;;;;;;;;;5312357;26;20016;-61
2024/04/17 13:03:37;;;;;;;30.00;21.25;;;;;;;;;;5311726;26;20006;-61
2024/04/17 13:06:04;;;;;;;30.88;20.77;;;;;;;;;;5311381;26;20109;-61
2024/04/17 13:08:31;;;;;;;28.50;19.75;;;;;;;;;;5310868;26;20009;-61
2024/04/17 13:11:01;;;;;;;27.15;19.60;;;;;;;;;;5311644;26;20033;-60
2024/04/17 13:13:27;;;;;;;26.45;19.02;;;;;;;;;;5310204;26;20038;-61
2024/04/17 13:15:54;;;;;;;30.42;19.00;;;;;;;;;;5311701;26;20002;-60
2024/04/17 13:18:20;;;;;;;28.80;19.15;;;;;;;;;;5310043;26;20008;-59
2024/04/17 13:20:53;;;;;;;26.30;18.25;;;;;;;;;;5311911;26;19998;-59
2024/04/17 13:23:18;;;;;;;27.02;18.25;;;;;;;;;;5311505;26;20001;-62
2024/04/17 13:25:53;;;;;;;23.98;16.90;;;;;;;;;;5309834;26;20001;-61
2024/04/17 13:28:19;;;;;;;22.48;16.90;;;;;;;;;;5311702;26;20020;-61
2024/04/17 13:30:45;;;;;;;24.27;17.17;;;;;;;;;;5311830;26;20001;-63
2024/04/17 13:33:11;;;;;;;22.52;16.17;;;;;;;;;;5311054;26;20005;-61
2024/04/17 13:35:37;;;;;;;22.02;15.93;;;;;;;;;;5311556;26;19998;-62
2024/04/17 13:38:03;;;;;;;23.52;16.33;;;;;;;;;;5311631;26;20016;-61
2024/04/17 13:40:29;;;;;;;22.90;15.15;;;;;;;;;;5311778;26;20006;-61
2024/04/17 13:42:55;;;;;;;20.45;13.73;;;;;;;;;;5311172;26;20440;-62
2024/04/17 13:45:21;;;;;;;19.30;13.98;;;;;;;;;;5311426;26;20051;-62
2024/04/17 13:47:47;;;;;;;19.48;13.93;;;;;;;;;;5311368;26;20133;-61
2024/04/17 13:50:13;;;;;;;21.45;15.02;;;;;;;;;;5311036;26;20009;-62
2024/04/17 13:52:39;;;;;;;19.17;13.80;;;;;;;;;;5310598;26;20528;-61
2024/04/17 13:55:05;;;;;;;16.00;12.23;;;;;;;;;;5311232;26;20002;-62
2024/04/17 13:57:31;;;;;;;16.77;12.13;;;;;;;;;;5310776;26;20013;-62
2024/04/17 13:59:57;;;;;;;17.77;12.63;;;;;;;;;;5311245;26;20083;-61
2024/04/17 14:02:23;;;;;;;17.23;11.98;;;;;;;;;;5309599;26;20672;-62
2024/04/17 14:04:49;;;;;;;16.55;11.38;;;;;;;;;;5311030;26;20001;-62
2024/04/17 14:07:15;;;;;;;16.50;11.95;;;;;;;;;;5311273;26;20001;-61
2024/04/17 14:09:41;;;;;;;16.55;11.70;;;;;;;;;;5311243;26;20005;-60
2024/04/17 14:12:07;;;;;;;14.50;10.35;;;;;;;;;;5310667;26;20002;-61
2024/04/17 14:14:33;;;;;;;15.73;11.10;;;;;;;;;;5310946;26;20477;-61
2024/04/17 14:16:59;;;;;;;20.73;11.68;;;;;;;;;;5310398;26;20075;-61